Time;durP1;ratioP1;P1;durP2;ratioP2;P2;SDS_P1;SDS_P2;PMS_P1;PMS_P2;Temp;Humidity;BMP_temperature;BMP_pressure;BME280_temperature;BME280_humidity;BME280_pressure;Samples;Min_cycle;Max_cycle;Signal;HPM_P1;HPM_P2
2024/04/17 00:01:31;;;;;;;8.70;5.82;;;;;;;19.61;74.59;98349.09;5458700;26;19987;-64
2024/04/17 00:03:57;;;;;;;9.82;5.25;;;;;;;19.50;74.65;98346.53;5459356;26;20006;-64
2024/04/17 00:06:23;;;;;;;7.70;4.82;;;;;;;19.44;75.09;98353.75;5458716;26;20015;-64
2024/04/17 00:08:50;;;;;;;9.15;5.32;;;;;;;19.33;75.96;98362.75;5458792;26;20020;-64
2024/04/17 00:11:16;;;;;;;8.77;5.63;;;;;;;19.40;76.41;98360.69;5458020;26;20011;-64
2024/04/17 00:13:42;;;;;;;7.00;5.28;;;;;;;19.65;74.95;98354.78;5459891;26;20001;-64
2024/04/17 00:16:08;;;;;;;8.98;4.97;;;;;;;19.75;73.97;98353.00;5459154;26;19999;-64
2024/04/17 00:18:34;;;;;;;5.85;5.07;;;;;;;20.00;72.83;98357.00;5458613;26;20154;-64
2024/04/17 00:21:00;;;;;;;7.85;5.35;;;;;;;20.14;71.33;98352.00;5455460;26;20105;-64
2024/04/17 00:23:27;;;;;;;9.80;5.97;;;;;;;20.19;70.73;98352.84;5461541;26;19991;-64
2024/04/17 00:25:53;;;;;;;8.95;5.57;;;;;;;20.02;71.53;98354.84;5461824;26;20296;-63
2024/04/17 00:28:19;;;;;;;7.38;5.00;;;;;;;19.64;73.99;98345.09;5461780;26;19994;-64
2024/04/17 00:30:45;;;;;;;8.05;5.07;;;;;;;19.58;74.80;98325.44;5460670;26;20121;-64
2024/04/17 00:33:12;;;;;;;7.28;4.97;;;;;;;19.48;75.37;98309.22;5461309;26;20098;-64
2024/04/17 00:35:38;;;;;;;7.07;5.63;;;;;;;19.39;76.24;98310.75;5460692;26;19994;-64
2024/04/17 00:38:04;;;;;;;5.55;4.85;;;;;;;19.50;76.14;98311.66;5460699;26;19998;-63
2024/04/17 00:40:33;;;;;;;8.15;5.10;;;;;;;19.46;76.44;98317.53;5459888;26;20002;-63
2024/04/17 00:43:03;;;;;;;10.13;5.70;;;;;;;19.29;77.49;98319.50;5461234;26;20007;-63
2024/04/17 00:45:40;;;;;;;9.25;5.35;;;;;;;19.12;78.69;98313.41;5460410;26;19999;-63
2024/04/17 00:48:08;;;;;;;10.05;6.13;;;;;;;19.00;79.83;98324.28;5460779;26;20002;-63
2024/04/17 00:50:35;;;;;;;7.68;5.78;;;;;;;18.79;80.90;98325.09;5460073;26;19991;-64
2024/04/17 00:53:03;;;;;;;9.02;5.53;;;;;;;18.64;81.75;98306.91;5460944;26;19995;-64
2024/04/17 00:55:32;;;;;;;9.85;5.65;;;;;;;18.48;81.52;98310.44;5462254;26;19999;-65
2024/04/17 00:58:00;;;;;;;7.75;5.47;;;;;;;18.34;82.04;98315.34;5460835;26;19995;-64
2024/04/17 01:00:26;;;;;;;9.43;5.05;;;;;;;18.44;81.34;98317.34;5461872;26;19990;-64
2024/04/17 01:02:52;;;;;;;6.53;4.82;;;;;;;18.42;81.25;98332.88;5460842;26;19995;-64
2024/04/17 01:05:18;;;;;;;9.77;4.90;;;;;;;18.50;80.89;98321.72;5461082;26;20198;-64
2024/04/17 01:07:44;;;;;;;5.43;4.82;;;;;;;18.55;80.08;98320.97;5460924;26;20006;-64
2024/04/17 01:10:10;;;;;;;9.10;5.13;;;;;;;18.58;79.44;98313.25;5462270;26;20390;-64
2024/04/17 01:12:36;;;;;;;8.45;4.78;;;;;;;18.69;78.94;98308.84;5460816;26;20004;-64
2024/04/17 01:15:10;;;;;;;5.65;4.45;;;;;;;18.88;77.16;98309.38;5461624;26;20020;-64
2024/04/17 01:17:37;;;;;;;8.00;5.10;;;;;;;18.86;76.90;98293.53;5460491;26;19991;-64
2024/04/17 01:20:04;;;;;;;8.05;4.55;;;;;;;18.94;76.79;98293.09;5462086;26;19994;-64
2024/04/17 01:22:29;;;;;;;7.90;6.35;;;;;;;19.10;76.08;98283.34;5460038;26;19995;-64
2024/04/17 01:24:55;;;;;;;7.93;5.30;;;;;;;19.28;74.80;98287.53;5460504;26;19987;-64
2024/04/17 01:27:21;;;;;;;7.68;5.45;;;;;;;19.38;74.20;98293.81;5459624;26;20003;-64
2024/04/17 01:29:47;;;;;;;7.45;4.65;;;;;;;19.56;73.31;98299.91;5460344;26;20134;-64
2024/04/17 01:32:13;;;;;;;5.80;4.38;;;;;;;19.09;75.28;98285.22;5454059;26;20006;-64
2024/04/17 01:34:39;;;;;;;8.32;5.30;;;;;;;18.89;76.65;98284.19;5443625;26;19998;-63
2024/04/17 01:37:05;;;;;;;6.50;5.00;;;;;;;18.40;79.83;98292.09;5461123;26;20114;-64
2024/04/17 01:39:31;;;;;;;10.07;5.03;;;;;;;18.33;80.60;98280.75;5461056;26;20020;-64
2024/04/17 01:41:57;;;;;;;8.90;4.93;;;;;;;18.40;80.53;98270.66;5459431;26;20093;-64
2024/04/17 01:44:23;;;;;;;9.40;5.22;;;;;;;18.63;79.51;98273.13;5460688;26;20091;-64
2024/04/17 01:46:49;;;;;;;8.50;5.45;;;;;;;18.95;77.74;98269.78;5460288;26;20184;-64
2024/04/17 01:49:15;;;;;;;7.55;4.85;;;;;;;18.91;77.71;98276.69;5461625;26;19999;-65
2024/04/17 01:51:41;;;;;;;9.55;5.50;;;;;;;19.01;77.31;98269.56;5459985;26;19991;-64
2024/04/17 01:54:07;;;;;;;6.72;4.97;;;;;;;18.78;78.71;98267.16;5441898;26;20003;-64
2024/04/17 01:56:33;;;;;;;7.55;5.35;;;;;;;18.58;79.31;98258.81;5456736;26;19987;-64
2024/04/17 01:58:59;;;;;;;10.45;5.55;;;;;;;18.45;80.51;98268.84;5461718;26;19991;-64
2024/04/17 02:01:25;;;;;;;10.60;5.57;;;;;;;18.36;81.43;98273.03;5461496;26;20006;-64
2024/04/17 02:03:51;;;;;;;8.68;4.90;;;;;;;18.26;82.06;98272.88;5461283;26;20096;-64
2024/04/17 02:06:17;;;;;;;7.35;5.40;;;;;;;18.11;82.97;98264.63;5460746;26;20218;-64
2024/04/17 02:08:42;;;;;;;6.90;5.68;;;;;;;18.12;82.89;98263.59;5460421;26;20479;-64
2024/04/17 02:11:08;;;;;;;11.52;5.90;;;;;;;18.11;83.97;98268.13;5459894;26;19995;-64
2024/04/17 02:13:34;;;;;;;7.28;5.38;;;;;;;18.06;83.95;98269.94;5460322;26;19999;-64
2024/04/17 02:16:04;;;;;;;7.80;5.35;;;;;;;18.20;82.65;98263.16;5459628;26;20001;-63
2024/04/17 02:18:30;;;;;;;7.97;5.45;;;;;;;18.42;80.87;98257.81;5460043;26;19995;-64
2024/04/17 02:20:56;;;;;;;8.07;5.18;;;;;;;18.46;80.33;98261.63;5456781;26;19993;-64
2024/04/17 02:23:22;;;;;;;7.75;4.60;;;;;;;18.45;79.78;98260.00;5422141;26;20193;-64
2024/04/17 02:25:48;;;;;;;7.95;5.22;;;;;;;18.47;79.80;98260.56;5424111;26;20048;-64
2024/04/17 02:28:14;;;;;;;13.48;6.15;;;;;;;18.45;80.16;98260.00;5421612;26;20205;-63
2024/04/17 02:30:40;;;;;;;12.30;5.53;;;;;;;18.39;80.17;98255.63;5423062;26;19987;-63
2024/04/17 02:33:06;;;;;;;9.15;5.00;;;;;;;18.30;80.58;98249.91;5421623;26;20000;-64
2024/04/17 02:35:32;;;;;;;8.63;5.47;;;;;;;18.18;81.56;98244.66;5423124;26;19995;-63
2024/04/17 02:37:58;;;;;;;6.95;5.32;;;;;;;17.86;84.08;98246.34;5421472;26;20222;-63
2024/04/17 02:40:24;;;;;;;9.23;4.90;;;;;;;17.69;85.45;98254.38;5422935;26;19991;-64
2024/04/17 02:42:50;;;;;;;8.07;5.63;;;;;;;17.74;84.90;98248.28;5421876;26;19996;-63
2024/04/17 02:45:15;;;;;;;8.65;5.10;;;;;;;17.74;84.66;98256.31;5423665;26;20340;-64
2024/04/17 02:47:41;;;;;;;6.18;5.18;;;;;;;17.71;85.12;98262.16;5424635;26;20106;-64
2024/04/17 02:50:08;;;;;;;11.68;5.15;;;;;;;17.86;84.48;98259.72;5421970;26;20214;-64
2024/04/17 02:52:35;;;;;;;7.95;5.78;;;;;;;18.10;82.72;98242.41;5423481;26;19992;-64
2024/04/17 02:55:02;;;;;;;8.43;5.40;;;;;;;18.20;82.10;98239.06;5422416;26;19999;-64
2024/04/17 02:57:29;;;;;;;10.15;5.32;;;;;;;18.21;81.95;98232.63;5423374;26;20028;-64
2024/04/17 02:59:55;;;;;;;8.90;5.32;;;;;;;18.22;81.83;98230.75;5422349;26;20198;-64
2024/04/17 03:02:21;;;;;;;8.73;5.45;;;;;;;18.26;81.45;98229.22;5423597;26;19996;-64
2024/04/17 03:04:47;;;;;;;11.00;6.00;;;;;;;18.36;81.69;98230.16;5421747;26;20106;-65
2024/04/17 03:07:13;;;;;;;7.05;5.53;;;;;;;18.41;81.25;98218.69;5424440;26;19992;-65
2024/04/17 03:09:39;;;;;;;8.15;5.60;;;;;;;18.36;81.83;98218.63;5423583;26;20000;-65
2024/04/17 03:12:05;;;;;;;10.88;6.07;;;;;;;18.19;82.35;98216.00;5423971;26;20006;-64
2024/04/17 03:14:31;;;;;;;9.82;5.75;;;;;;;17.89;84.48;98212.91;5421966;26;19995;-65
2024/04/17 03:16:57;;;;;;;8.27;5.38;;;;;;;17.74;85.62;98219.66;5422718;26;20006;-65
2024/04/17 03:19:23;;;;;;;10.25;5.72;;;;;;;17.81;85.44;98214.94;5421380;26;19995;-64
2024/04/17 03:21:49;;;;;;;7.13;5.72;;;;;;;17.92;84.74;98217.75;5422070;26;19995;-64
2024/04/17 03:24:15;;;;;;;8.18;5.63;;;;;;;18.06;83.91;98222.53;5423530;26;19995;-63
2024/04/17 03:26:41;;;;;;;10.10;5.25;;;;;;;18.30;82.93;98231.16;5421442;26;20135;-64
2024/04/17 03:29:07;;;;;;;10.52;5.50;;;;;;;18.44;81.86;98235.06;5422453;26;19995;-64
2024/04/17 03:31:33;;;;;;;10.57;5.60;;;;;;;18.23;82.38;98235.06;5422371;26;20011;-62
2024/04/17 03:33:59;;;;;;;9.02;4.90;;;;;;;17.61;86.97;98235.19;5423509;26;20027;-64
2024/04/17 03:36:25;;;;;;;10.07;5.90;;;;;;;17.68;86.78;98215.25;5422718;26;19995;-64
2024/04/17 03:38:51;;;;;;;10.35;5.38;;;;;;;17.76;86.52;98222.91;5424011;26;20185;-64
2024/04/17 03:41:17;;;;;;;8.90;5.22;;;;;;;17.82;85.99;98221.09;5421755;26;19999;-63
2024/04/17 03:43:42;;;;;;;10.23;5.65;;;;;;;17.71;87.04;98222.81;5423344;26;20095;-64
2024/04/17 03:46:08;;;;;;;10.27;5.93;;;;;;;17.75;86.41;98232.00;5419844;26;20002;-64
2024/04/17 03:48:34;;;;;;;11.48;5.97;;;;;;;17.72;87.23;98229.81;5423141;26;19998;-64
2024/04/17 03:51:00;;;;;;;11.48;5.35;;;;;;;17.63;88.13;98233.88;5422035;26;20011;-64
2024/04/17 03:53:26;;;;;;;9.38;5.47;;;;;;;17.59;88.13;98224.72;5421115;26;20098;-64
2024/04/17 03:55:52;;;;;;;7.20;5.25;;;;;;;17.55;88.51;98236.97;5421000;26;20210;-63
2024/04/17 03:58:18;;;;;;;9.23;5.43;;;;;;;17.55;88.91;98231.63;5419050;26;20049;-63
2024/04/17 04:00:44;;;;;;;10.02;5.40;;;;;;;17.58;89.02;98236.47;5423658;26;20224;-63
2024/04/17 04:03:10;;;;;;;7.50;5.20;;;;;;;17.64;88.87;98230.16;5424153;26;20185;-63
2024/04/17 04:05:37;;;;;;;11.80;5.60;;;;;;;17.64;88.89;98229.34;5421740;26;20023;-63
2024/04/17 04:08:03;;;;;;;13.30;5.50;;;;;;;17.63;89.59;98233.06;5421432;26;20203;-64
2024/04/17 04:10:29;;;;;;;11.20;5.85;;;;;;;17.59;89.93;98226.59;5423061;26;20003;-63
2024/04/17 04:12:55;;;;;;;10.18;5.78;;;;;;;17.65;89.62;98234.44;5421934;26;19999;-63
2024/04/17 04:15:21;;;;;;;10.90;5.30;;;;;;;17.44;91.20;98241.34;5423225;26;19995;-64
2024/04/17 04:17:47;;;;;;;9.07;5.63;;;;;;;17.31;92.38;98238.97;5420494;26;19999;-64
2024/04/17 04:20:13;;;;;;;10.68;5.55;;;;;;;17.37;92.12;98223.81;5423188;26;20002;-63
2024/04/17 04:22:39;;;;;;;12.60;6.10;;;;;;;17.37;92.44;98237.22;5421675;26;20007;-64
2024/04/17 04:25:06;;;;;;;8.02;5.25;;;;;;;17.34;92.96;98237.69;5422109;26;19995;-64
2024/04/17 04:27:32;;;;;;;8.55;5.45;;;;;;;17.21;94.33;98252.19;5421539;26;20049;-62
2024/04/17 04:29:58;;;;;;;11.75;5.40;;;;;;;17.12;95.76;98240.25;5421452;26;20000;-62
2024/04/17 04:32:24;;;;;;;8.75;5.60;;;;;;;17.09;95.92;98238.06;5420522;26;20107;-63
2024/04/17 04:34:49;;;;;;;5.93;4.95;;;;;;;17.21;95.35;98222.75;5420018;26;19994;-63
2024/04/17 04:37:16;;;;;;;6.60;5.30;;;;;;;17.14;96.55;98224.78;5419421;26;20391;-63
2024/04/17 04:39:42;;;;;;;11.38;5.53;;;;;;;17.10;96.34;98219.09;5419861;26;20004;-65
2024/04/17 04:42:08;;;;;;;10.25;5.80;;;;;;;17.33;95.96;98209.31;5420690;26;20158;-63
2024/04/17 04:44:34;;;;;;;8.52;5.53;;;;;;;17.27;95.63;98213.78;5420416;26;20015;-63
2024/04/17 04:47:01;;;;;;;16.05;6.00;;;;;;;17.40;95.76;98202.75;5420149;26;20193;-64
2024/04/17 04:49:30;;;;;;;12.00;5.70;;;;;;;17.43;95.69;98212.97;5417006;26;19999;-64
2024/04/17 04:51:56;;;;;;;16.10;6.32;;;;;;;17.53;95.26;98204.28;5419297;26;20000;-64
2024/04/17 04:54:22;;;;;;;13.05;5.85;;;;;;;17.56;94.74;98196.59;5419691;26;20095;-62
2024/04/17 04:56:50;;;;;;;15.30;5.22;;;;;;;17.52;95.34;98195.44;5420392;26;20014;-62
2024/04/17 04:59:17;;;;;;;8.88;5.45;;;;;;;17.66;94.11;98198.63;5419190;26;19991;-64
2024/04/17 05:01:43;;;;;;;10.75;5.50;;;;;;;17.85;93.90;98186.63;5419762;26;19991;-62
2024/04/17 05:04:09;;;;;;;14.82;6.30;;;;;;;17.99;91.98;98186.25;5419620;26;20057;-62
2024/04/17 05:06:35;;;;;;;8.93;5.50;;;;;;;18.13;91.23;98187.53;5420159;26;19995;-62
2024/04/17 05:09:01;;;;;;;14.55;6.03;;;;;;;18.40;90.45;98193.75;5422773;26;19995;-65
2024/04/17 05:11:27;;;;;;;9.45;5.07;;;;;;;18.33;89.56;98195.00;5424155;26;20006;-62
2024/04/17 05:13:53;;;;;;;9.02;5.40;;;;;;;18.41;88.94;98194.56;5423251;26;20004;-62
2024/04/17 05:16:19;;;;;;;8.65;5.30;;;;;;;18.54;87.81;98171.94;5423168;26;19991;-62
2024/04/17 05:18:45;;;;;;;35.58;8.55;;;;;;;18.75;88.35;98189.91;5389949;26;20024;-62
2024/04/17 05:21:11;;;;;;;11.30;5.13;;;;;;;18.94;86.61;98204.59;5421448;26;19995;-63
2024/04/17 05:23:37;;;;;;;13.93;6.00;;;;;;;19.15;86.70;98208.28;5423284;26;20210;-63
2024/04/17 05:26:03;;;;;;;15.77;5.85;;;;;;;19.43;84.62;98204.47;5422250;26;20095;-63
2024/04/17 05:28:29;;;;;;;12.20;5.65;;;;;;;19.68;83.39;98193.97;5423540;26;20187;-62
2024/04/17 05:30:59;;;;;;;27.15;7.68;;;;;;;19.83;82.33;98190.59;5421286;26;19999;-63
2024/04/17 05:33:25;;;;;;;11.32;5.93;;;;;;;19.82;81.36;98180.09;5423745;26;20185;-63
2024/04/17 05:35:51;;;;;;;258.92;30.30;;;;;;;20.06;81.50;98198.25;5422654;26;19996;-63
2024/04/17 05:38:17;;;;;;;9.85;5.65;;;;;;;20.20;80.43;98201.28;5423716;26;20002;-63
2024/04/17 05:40:48;;;;;;;10.07;5.30;;;;;;;20.00;80.72;98190.41;5419255;26;20027;-63
2024/04/17 05:43:17;;;;;;;13.98;5.53;;;;;;;20.23;80.47;98199.94;5422416;26;20268;-63
2024/04/17 05:45:46;;;;;;;11.77;4.85;;;;;;;20.25;80.40;98193.22;5422959;26;20275;-62
2024/04/17 05:48:12;;;;;;;11.40;5.75;;;;;;;20.32;80.40;98187.59;5422921;26;19995;-63
2024/04/17 05:50:40;;;;;;;12.73;5.60;;;;;;;20.37;79.75;98204.56;5420528;26;19988;-62
2024/04/17 05:53:06;;;;;;;10.45;5.38;;;;;;;20.34;79.20;98205.09;5422930;26;19996;-62
2024/04/17 05:55:34;;;;;;;12.02;4.95;;;;;;;20.28;78.87;98197.28;5423319;26;19996;-63
2024/04/17 05:58:01;;;;;;;8.13;5.18;;;;;;;20.26;80.10;98192.16;5421858;26;20015;-63
2024/04/17 06:00:27;;;;;;;10.68;5.07;;;;;;;20.35;78.76;98198.66;5423572;26;20006;-63
2024/04/17 06:02:53;;;;;;;12.32;6.05;;;;;;;20.59;78.54;98184.78;5421729;26;20247;-63
2024/04/17 06:05:19;;;;;;;14.25;5.57;;;;;;;20.56;79.32;98199.56;5423096;26;20014;-63
2024/04/17 06:07:44;;;;;;;7.68;5.10;;;;;;;20.55;76.70;98197.94;5421614;26;19999;-62
2024/04/17 06:10:10;;;;;;;11.55;5.53;;;;;;;20.57;77.73;98190.41;5424196;26;20003;-62
2024/04/17 06:12:36;;;;;;;13.85;5.90;;;;;;;20.77;76.97;98192.34;5421642;26;20010;-62
2024/04/17 06:15:02;;;;;;;11.95;5.35;;;;;;;20.72;75.19;98190.47;5423571;26;20015;-63
2024/04/17 06:17:28;;;;;;;11.25;5.75;;;;;;;20.98;76.98;98204.81;5422104;26;20099;-63
2024/04/17 06:19:55;;;;;;;10.77;5.60;;;;;;;21.20;74.64;98201.88;5422329;26;19992;-62
2024/04/17 06:22:21;;;;;;;10.23;5.20;;;;;;;21.20;73.80;98182.22;5421954;26;20006;-62
2024/04/17 06:24:47;;;;;;;10.02;5.63;;;;;;;21.03;76.52;98183.28;5423238;26;19991;-62
2024/04/17 06:27:13;;;;;;;13.05;5.10;;;;;;;21.02;74.86;98192.44;5423462;26;20014;-62
2024/04/17 06:29:39;;;;;;;10.43;5.70;;;;;;;21.07;74.96;98180.88;5421808;26;20232;-62
2024/04/17 06:32:05;;;;;;;9.35;5.65;;;;;;;21.19;70.45;98180.59;5422714;26;20010;-63
2024/04/17 06:34:31;;;;;;;14.70;5.53;;;;;;;21.26;70.05;98176.59;5420777;26;20207;-63
2024/04/17 06:36:57;;;;;;;9.40;6.10;;;;;;;21.28;69.80;98170.94;5422666;26;20007;-63
2024/04/17 06:39:23;;;;;;;12.30;5.57;;;;;;;21.48;71.97;98167.44;5422438;26;19998;-64
2024/04/17 06:41:50;;;;;;;14.90;5.25;;;;;;;21.60;71.04;98160.69;5423053;26;19995;-63
2024/04/17 06:44:17;;;;;;;8.88;5.07;;;;;;;21.67;69.18;98150.44;5421359;26;20002;-62
2024/04/17 06:46:43;;;;;;;6.80;4.55;;;;;;;21.75;67.28;98143.69;5422853;26;20118;-62
2024/04/17 06:49:09;;;;;;;7.75;4.95;;;;;;;21.64;67.42;98142.91;5421382;26;19995;-63
2024/04/17 06:51:35;;;;;;;12.20;4.70;;;;;;;21.79;67.30;98147.44;5423187;26;19999;-63
2024/04/17 06:54:01;;;;;;;6.72;4.90;;;;;;;21.86;65.88;98147.19;5421321;26;19991;-63
2024/04/17 06:56:28;;;;;;;6.72;4.50;;;;;;;21.93;65.38;98155.78;5421886;26;20018;-62
2024/04/17 06:58:55;;;;;;;6.30;4.05;;;;;;;22.07;63.61;98154.16;5421217;26;20042;-62
2024/04/17 07:01:21;;;;;;;9.77;4.35;;;;;;;22.14;64.85;98156.56;5421288;26;20004;-63
2024/04/17 07:03:47;;;;;;;11.15;5.07;;;;;;;22.26;64.06;98151.66;5421026;26;20000;-63
2024/04/17 07:06:13;;;;;;;14.43;5.00;;;;;;;22.23;63.14;98141.44;5420920;26;20156;-63
2024/04/17 07:08:39;;;;;;;9.25;5.15;;;;;;;22.39;65.25;98142.97;5421979;26;20006;-63
2024/04/17 07:11:05;;;;;;;39.75;8.10;;;;;;;22.43;65.00;98138.63;5419127;26;20002;-63
2024/04/17 07:13:31;;;;;;;13.02;5.32;;;;;;;22.35;63.20;98138.41;5422070;26;20023;-63
2024/04/17 07:15:57;;;;;;;10.52;4.88;;;;;;;22.34;64.66;98140.28;5420115;26;20238;-63
2024/04/17 07:18:24;;;;;;;11.98;5.10;;;;;;;22.47;65.96;98131.59;5422298;26;20343;-63
2024/04/17 07:20:50;;;;;;;6.05;4.50;;;;;;;22.53;64.40;98119.69;5421095;26;20007;-63
2024/04/17 07:23:16;;;;;;;10.13;5.40;;;;;;;22.56;62.89;98131.81;5451179;26;19992;-63
2024/04/17 07:25:42;;;;;;;24.33;5.65;;;;;;;22.45;65.91;98120.28;5419524;26;20237;-63
2024/04/17 07:28:08;;;;;;;12.02;4.65;;;;;;;22.76;66.61;98125.50;5422744;26;20003;-64
2024/04/17 07:30:41;;;;;;;10.80;5.13;;;;;;;22.85;66.99;98123.84;5420624;26;20087;-63
2024/04/17 07:33:07;;;;;;;10.40;4.72;;;;;;;22.80;62.84;98119.28;5421057;26;20052;-63
2024/04/17 07:35:33;;;;;;;9.13;4.70;;;;;;;22.84;63.89;98114.13;5420992;26;20003;-63
2024/04/17 07:37:59;;;;;;;116.78;16.42;;;;;;;22.89;66.62;98109.53;5421704;26;20109;-64
2024/04/17 07:40:25;;;;;;;8.68;4.78;;;;;;;23.01;64.47;98116.47;5421395;26;19999;-63
2024/04/17 07:42:51;;;;;;;12.63;5.57;;;;;;;22.93;62.92;98102.47;5420380;26;19998;-64
2024/04/17 07:45:17;;;;;;;10.30;4.80;;;;;;;22.88;61.89;98110.59;5418532;26;19999;-63
2024/04/17 07:47:44;;;;;;;7.30;4.30;;;;;;;22.83;62.62;98096.31;5419472;26;20003;-63
2024/04/17 07:50:10;;;;;;;22.40;6.72;;;;;;;22.98;62.45;98103.53;5421638;26;20028;-64
2024/04/17 07:52:36;;;;;;;7.68;4.38;;;;;;;23.10;63.25;98091.28;5420851;26;20214;-64
2024/04/17 07:55:03;;;;;;;11.05;5.00;;;;;;;23.16;60.91;98084.75;5421014;26;19995;-64
2024/04/17 07:57:28;;;;;;;8.32;4.50;;;;;;;23.18;60.69;98077.16;5419024;26;20045;-64
2024/04/17 07:59:54;;;;;;;8.88;4.43;;;;;;;23.20;63.08;98074.19;5423246;26;20039;-64
2024/04/17 08:02:20;;;;;;;13.20;4.70;;;;;;;23.22;62.24;98080.09;5420241;26;20360;-64
2024/04/17 08:04:46;;;;;;;11.77;5.00;;;;;;;23.22;61.33;98072.81;5422260;26;20106;-64
2024/04/17 08:07:13;;;;;;;10.98;4.50;;;;;;;23.32;62.18;98074.59;5419829;26;20005;-64
2024/04/17 08:09:39;;;;;;;8.50;3.95;;;;;;;23.45;59.82;98075.81;5421779;26;19991;-64
2024/04/17 08:12:05;;;;;;;257.88;34.75;;;;;;;23.45;58.70;98071.22;5421081;26;20322;-64
2024/04/17 08:14:31;;;;;;;7.22;4.00;;;;;;;23.43;59.24;98054.50;5420882;26;19992;-64
2024/04/17 08:16:57;;;;;;;7.07;4.63;;;;;;;23.52;57.55;98062.78;5420984;26;20029;-64
2024/04/17 08:19:23;;;;;;;9.40;3.97;;;;;;;23.42;56.81;98060.19;5423743;26;20006;-63
2024/04/17 08:21:49;;;;;;;10.93;4.13;;;;;;;23.31;57.93;98050.56;5421498;26;20206;-64
2024/04/17 08:24:15;;;;;;;19.17;5.68;;;;;;;23.26;57.36;98067.63;5421653;26;20002;-64
2024/04/17 08:26:41;;;;;;;108.10;13.90;;;;;;;23.39;58.07;98053.47;5423064;26;20007;-64
2024/04/17 08:29:07;;;;;;;8.52;4.00;;;;;;;23.42;56.18;98044.78;5421367;26;20049;-65
2024/04/17 08:31:33;;;;;;;12.38;4.60;;;;;;;23.62;57.65;98034.88;5422390;26;19991;-64
2024/04/17 08:33:59;;;;;;;9.85;4.50;;;;;;;23.73;56.26;98025.56;5425000;26;20106;-64
2024/04/17 08:36:25;;;;;;;10.60;4.18;;;;;;;23.86;57.40;98020.25;5421115;26;20053;-64
2024/04/17 08:38:55;;;;;;;7.70;4.18;;;;;;;23.98;56.00;98033.38;5423102;26;20000;-64
2024/04/17 08:41:27;;;;;;;5.82;3.80;;;;;;;24.11;55.48;98023.72;5423467;26;20003;-64
2024/04/17 08:43:56;;;;;;;10.48;4.50;;;;;;;24.18;54.29;98016.88;5425714;26;19992;-65
2024/04/17 08:46:23;;;;;;;8.82;3.55;;;;;;;24.25;53.90;98008.38;5425883;26;20011;-64
2024/04/17 08:48:50;;;;;;;7.00;3.58;;;;;;;24.27;53.30;97995.41;5425233;26;20193;-64
2024/04/17 08:51:18;;;;;;;7.82;4.78;;;;;;;24.23;54.74;97986.25;5426583;26;20003;-64
2024/04/17 08:53:44;;;;;;;10.10;3.75;;;;;;;24.26;55.56;97991.06;5425440;26;20252;-64
2024/04/17 08:56:11;;;;;;;9.98;4.13;;;;;;;24.26;55.55;97999.19;5425263;26;21225;-64
2024/04/17 08:58:37;;;;;;;12.15;4.22;;;;;;;24.27;57.57;98000.81;5426008;26;20185;-64
2024/04/17 09:01:05;;;;;;;12.00;4.57;;;;;;;24.33;58.03;97988.81;5424100;26;19987;-65
2024/04/17 09:03:35;;;;;;;13.00;4.20;;;;;;;24.36;56.67;97990.94;5427701;26;20282;-65
2024/04/17 09:06:01;;;;;;;12.15;4.90;;;;;;;24.43;60.33;97983.25;5423956;26;19995;-64
2024/04/17 09:08:27;;;;;;;53.75;9.13;;;;;;;24.48;57.81;97975.06;5424975;26;20021;-64
2024/04/17 09:10:57;;;;;;;9.07;4.22;;;;;;;24.59;55.61;97974.88;5426822;26;20011;-65
2024/04/17 09:13:22;;;;;;;10.25;4.10;;;;;;;24.71;56.17;97961.69;5425683;26;20381;-64
2024/04/17 09:15:48;;;;;;;42.58;7.20;;;;;;;24.71;55.97;97950.88;5425305;26;19996;-64
2024/04/17 09:18:14;;;;;;;11.30;3.80;;;;;;;24.74;51.83;97952.97;5425879;26;20098;-63
2024/04/17 09:20:42;;;;;;;8.95;3.70;;;;;;;24.78;45.24;97962.91;5425230;26;20078;-64
2024/04/17 09:23:09;;;;;;;11.20;4.05;;;;;;;24.90;46.35;97951.59;5425526;26;20111;-64
2024/04/17 09:25:37;;;;;;;12.40;3.83;;;;;;;25.01;44.64;97947.66;5427682;26;20049;-64
2024/04/17 09:28:03;;;;;;;11.00;3.67;;;;;;;25.13;43.51;97936.34;5426973;26;20000;-64
2024/04/17 09:30:29;;;;;;;9.00;3.53;;;;;;;25.18;45.10;97949.78;5422945;26;20073;-64
2024/04/17 09:32:56;;;;;;;9.98;3.50;;;;;;;25.18;42.98;97938.16;5424528;26;20019;-63
2024/04/17 09:35:23;;;;;;;11.77;3.22;;;;;;;25.22;43.12;97942.66;5424317;26;20295;-64
2024/04/17 09:37:49;;;;;;;9.85;3.70;;;;;;;25.27;49.63;97933.63;5424620;26;20006;-64
2024/04/17 09:40:15;;;;;;;15.50;4.50;;;;;;;25.27;50.09;97936.34;5425511;26;20242;-63
2024/04/17 09:42:42;;;;;;;10.07;4.28;;;;;;;25.28;49.50;97946.88;5424978;26;20015;-61
2024/04/17 09:45:15;;;;;;;9.63;3.63;;;;;;;25.24;48.95;97940.47;5424562;26;20000;-62
2024/04/17 09:47:45;;;;;;;11.95;4.65;;;;;;;25.21;40.21;97937.53;5423357;26;19998;-62
2024/04/17 09:50:23;;;;;;;15.18;4.30;;;;;;;25.36;40.81;97929.13;5425264;26;20044;-63
2024/04/17 09:52:54;;;;;;;10.85;3.80;;;;;;;25.46;42.91;97927.00;5424835;26;20101;-62
2024/04/17 09:55:23;;;;;;;8.70;4.28;;;;;;;25.55;43.02;97937.13;5424332;26;20231;-63
2024/04/17 09:57:50;;;;;;;16.17;4.47;;;;;;;25.63;42.10;97931.00;5424646;26;20007;-63
2024/04/17 10:00:16;;;;;;;10.60;4.30;;;;;;;25.68;41.28;97926.28;5425251;26;19998;-63
2024/04/17 10:02:44;;;;;;;9.75;4.05;;;;;;;25.63;40.08;97915.53;5423747;26;19987;-62
2024/04/17 10:05:14;;;;;;;9.68;3.72;;;;;;;25.61;41.40;97917.75;5426920;26;20002;-63
2024/04/17 10:07:41;;;;;;;12.43;4.35;;;;;;;25.70;41.92;97917.84;5423979;26;19997;-63
2024/04/17 10:10:12;;;;;;;8.63;3.45;;;;;;;25.68;41.31;97912.72;5425877;26;20040;-62
2024/04/17 10:12:40;;;;;;;10.80;3.50;;;;;;;25.63;41.09;97906.59;5425613;26;19999;-63
2024/04/17 10:15:08;;;;;;;11.73;3.20;;;;;;;25.69;38.86;97910.81;5426179;26;20002;-63
2024/04/17 10:17:34;;;;;;;9.07;3.63;;;;;;;25.73;38.26;97915.34;5424539;26;20041;-63
2024/04/17 10:20:00;;;;;;;9.63;3.42;;;;;;;25.81;36.79;97902.97;5423712;26;19988;-63
2024/04/17 10:22:29;;;;;;;11.15;3.60;;;;;;;25.91;37.87;97907.34;5425109;26;20014;-63
2024/04/17 10:25:04;;;;;;;22.25;4.13;;;;;;;26.01;39.52;97890.88;5424607;26;20010;-63
2024/04/17 10:27:36;;;;;;;10.57;4.03;;;;;;;26.04;39.21;97903.81;5425701;26;19992;-63
2024/04/17 10:30:09;;;;;;;11.93;3.42;;;;;;;26.06;36.34;97893.47;5425772;26;19992;-62
2024/04/17 10:32:36;;;;;;;10.95;3.60;;;;;;;26.09;36.48;97896.38;5423102;26;20007;-63
2024/04/17 10:35:02;;;;;;;13.60;3.85;;;;;;;26.13;36.82;97885.69;5427216;26;20751;-63
2024/04/17 10:37:30;;;;;;;14.02;3.53;;;;;;;26.18;35.92;97895.63;5425861;26;19994;-63
2024/04/17 10:39:56;;;;;;;11.65;3.80;;;;;;;26.23;37.03;97887.38;5424983;26;20024;-63
2024/04/17 10:42:23;;;;;;;11.43;3.60;;;;;;;26.22;36.67;97880.34;5424233;26;19987;-63
2024/04/17 10:44:51;;;;;;;12.98;3.50;;;;;;;26.23;35.54;97888.16;5424869;26;19992;-64
2024/04/17 10:47:22;;;;;;;14.30;3.40;;;;;;;26.24;36.18;97897.09;5422762;26;20086;-62
2024/04/17 10:49:58;;;;;;;14.20;4.45;;;;;;;26.19;37.42;97895.31;5426708;26;19992;-63
2024/04/17 10:52:25;;;;;;;36.95;7.78;;;;;;;26.02;42.14;97889.75;5426261;26;20263;-63
2024/04/17 10:54:54;;;;;;;28.10;6.30;;;;;;;25.74;46.27;97889.84;5425252;26;20010;-62
2024/04/17 10:57:21;;;;;;;12.55;5.15;;;;;;;25.23;48.48;97871.13;5424644;26;20005;-62
2024/04/17 10:59:47;;;;;;;17.05;6.05;;;;;;;25.23;49.40;97884.69;5424178;26;20223;-63
2024/04/17 11:02:14;;;;;;;25.52;6.70;;;;;;;24.76;52.40;97888.53;5426375;26;20016;-63
2024/04/17 11:04:40;;;;;;;22.30;5.15;;;;;;;24.54;53.54;97869.44;5423120;26;20236;-62
2024/04/17 11:07:13;;;;;;;13.55;4.45;;;;;;;24.36;54.25;97866.50;5424438;26;19988;-63
2024/04/17 11:09:43;;;;;;;15.40;4.28;;;;;;;24.21;54.64;97880.25;5424635;26;20162;-62
2024/04/17 11:12:20;;;;;;;10.95;3.92;;;;;;;24.12;53.60;97874.72;5421902;26;20276;-63
2024/04/17 11:14:47;;;;;;;10.18;3.80;;;;;;;24.16;53.63;97878.44;5422918;26;19995;-63
2024/04/17 11:17:13;;;;;;;20.38;4.43;;;;;;;24.29;53.12;97878.81;5424160;26;20006;-63
2024/04/17 11:19:43;;;;;;;10.60;3.85;;;;;;;24.27;52.83;97868.28;5422863;26;20094;-62
2024/04/17 11:22:14;;;;;;;13.80;4.35;;;;;;;24.24;53.41;97879.66;5423924;26;20049;-63
2024/04/17 11:24:57;;;;;;;9.88;4.28;;;;;;;24.31;53.27;97890.94;5424493;26;19999;-63
2024/04/17 11:27:23;;;;;;;9.73;4.35;;;;;;;24.47;51.05;97880.66;5424083;26;19999;-63